createdAt,value
2022-10-02T00:02:25.670Z,101558.91
2022-10-02T00:04:55.016Z,101583.19
2022-10-02T00:07:27.263Z,101590.31
2022-10-02T00:09:56.501Z,101593.91
2022-10-02T00:12:25.594Z,101582.81
2022-10-02T00:14:54.611Z,101607.25
2022-10-02T00:17:24.214Z,101597.47
2022-10-02T00:19:54.879Z,101595.72
2022-10-02T00:22:33.346Z,101597.25
2022-10-02T00:25:04.630Z,101601.69
2022-10-02T00:27:44.934Z,101611.47
2022-10-02T00:30:14.169Z,101616.78
2022-10-02T00:32:45.530Z,101631.06
2022-10-02T00:35:32.642Z,101626.47
2022-10-02T00:38:04.177Z,101628.38
2022-10-02T00:40:38.932Z,101624.75
2022-10-02T00:43:11.221Z,101626.47
2022-10-02T00:45:46.475Z,101618.09
2022-10-02T00:48:24.469Z,101634.63
2022-10-02T00:50:54.612Z,101628.88
2022-10-02T00:53:28.982Z,101629.38
2022-10-02T00:56:05.861Z,101628.50
2022-10-02T00:58:42.216Z,101613.50
2022-10-02T01:01:12.955Z,101612.63
2022-10-02T01:03:41.362Z,101611.97
2022-10-02T01:06:09.482Z,101619.94
2022-10-02T01:08:38.753Z,101620.97
2022-10-02T01:11:06.877Z,101618.38
2022-10-02T01:13:34.819Z,101607.63
2022-10-02T01:16:03.349Z,101608.56
2022-10-02T01:18:31.378Z,101607.72
2022-10-02T01:21:00.948Z,101612.13
2022-10-02T01:23:31.735Z,101614.81
2022-10-02T01:26:01.045Z,101612.13
2022-10-02T01:28:29.038Z,101613.88
2022-10-02T01:31:00.928Z,101621.09
2022-10-02T01:33:29.083Z,101632.91
2022-10-02T01:35:56.973Z,101628.56
2022-10-02T01:38:24.888Z,101633.84
2022-10-02T01:40:52.780Z,101631.25
2022-10-02T01:43:23.092Z,101625.97
2022-10-02T01:45:58.853Z,101639.41
2022-10-02T01:48:43.252Z,101632.28
2022-10-02T01:51:20.404Z,101628.84
2022-10-02T01:53:50.118Z,101629.88
2022-10-02T01:56:20.456Z,101626.69
2022-10-02T01:58:55.489Z,101642.28
2022-10-02T02:01:30.280Z,101630.75
2022-10-02T02:04:00.996Z,101615.88
2022-10-02T02:06:31.400Z,101630.66
2022-10-02T02:09:05.360Z,101619.81
2022-10-02T02:11:33.302Z,101620.66
2022-10-02T02:14:04.319Z,101625.00
2022-10-02T02:16:33.734Z,101617.69
2022-10-02T02:19:05.385Z,101608.00
2022-10-02T02:21:34.644Z,101601.84
2022-10-02T02:24:05.834Z,101607.81
2022-10-02T02:26:34.030Z,101606.88
2022-10-02T02:29:04.323Z,101607.13
2022-10-02T02:31:34.260Z,101613.19
2022-10-02T02:34:03.413Z,101590.41
2022-10-02T02:36:34.325Z,101609.63
2022-10-02T02:39:06.269Z,101617.69
2022-10-02T02:41:35.689Z,101613.28
2022-10-02T02:44:07.498Z,101597.81
2022-10-02T02:46:58.102Z,101615.00
2022-10-02T02:49:26.275Z,101637.41
2022-10-02T02:51:54.178Z,101642.88
2022-10-02T02:54:23.956Z,101643.81
2022-10-02T02:56:51.886Z,101636.81
2022-10-02T02:59:21.245Z,101641.34
2022-10-02T03:01:49.193Z,101639.69
2022-10-02T03:04:17.212Z,101649.59
2022-10-02T03:06:45.949Z,101647.06
2022-10-02T03:09:14.639Z,101657.94
2022-10-02T03:11:49.918Z,101653.31
2022-10-02T03:14:42.529Z,101646.22
2022-10-02T03:17:16.773Z,101640.91
2022-10-02T03:19:46.601Z,101649.75
2022-10-02T03:22:17.505Z,101633.72
2022-10-02T03:24:48.078Z,101626.53
2022-10-02T03:27:18.793Z,101628.34
2022-10-02T03:29:50.064Z,101621.25
2022-10-02T03:32:17.987Z,101626.53
2022-10-02T03:34:45.932Z,101628.44
2022-10-02T03:37:13.824Z,101633.91
2022-10-02T03:39:42.150Z,101625.00
2022-10-02T03:42:10.585Z,101611.81
2022-10-02T03:44:38.595Z,101626.91
2022-10-02T03:47:07.877Z,101627.75
2022-10-02T03:49:35.936Z,101627.84
2022-10-02T03:52:03.863Z,101629.78
2022-10-02T03:54:33.069Z,101635.53
2022-10-02T03:57:04.929Z,101650.13
2022-10-02T03:59:41.184Z,101639.38
2022-10-02T04:02:13.561Z,101643.88
2022-10-02T04:04:45.018Z,101642.06
2022-10-02T04:07:15.041Z,101642.16
2022-10-02T04:09:44.861Z,101644.94
2022-10-02T04:12:14.249Z,101650.78
2022-10-02T04:14:45.096Z,101660.22
2022-10-02T04:17:15.465Z,101658.75
2022-10-02T04:19:46.251Z,101664.31
2022-10-02T04:22:16.500Z,101663.72
2022-10-02T04:24:47.089Z,101655.94
2022-10-02T04:27:16.465Z,101648.56
2022-10-02T04:29:46.190Z,101643.19
2022-10-02T04:32:16.086Z,101663.38
2022-10-02T04:34:43.960Z,101672.50
2022-10-02T04:37:31.941Z,101685.16
2022-10-02T04:40:10.595Z,101692.56
2022-10-02T04:42:50.535Z,101683.78
2022-10-02T04:45:27.610Z,101654.56
2022-10-02T04:48:28.677Z,101686.03
2022-10-02T04:50:58.790Z,101690.28
2022-10-02T04:53:35.404Z,101693.56
2022-10-02T04:56:18.967Z,101679.34
2022-10-02T04:58:55.965Z,101688.59
2022-10-02T05:01:31.025Z,101682.16
2022-10-02T05:04:16.012Z,101701.31
2022-10-02T05:06:52.596Z,101717.81
2022-10-02T05:09:28.314Z,101713.03
2022-10-02T05:12:13.735Z,101727.09
2022-10-02T05:14:52.988Z,101733.72
2022-10-02T05:17:31.811Z,101741.94
2022-10-02T05:20:16.549Z,101751.16
2022-10-02T05:22:53.207Z,101765.91
2022-10-02T05:25:32.255Z,101774.25
2022-10-02T05:28:22.084Z,101786.06
2022-10-02T05:30:52.059Z,101786.97
2022-10-02T05:33:36.583Z,101786.06
2022-10-02T05:36:18.187Z,101785.31
2022-10-02T05:38:59.695Z,101784.22
2022-10-02T05:41:38.206Z,101805.34
2022-10-02T05:44:07.932Z,101820.84
2022-10-02T05:46:38.513Z,101820.19
2022-10-02T05:49:07.876Z,101828.47
2022-10-02T05:51:41.479Z,101814.78
2022-10-02T05:54:15.974Z,101830.41
2022-10-02T05:56:45.769Z,101838.53
2022-10-02T05:59:15.267Z,101844.06
2022-10-02T06:01:44.840Z,101846.81
2022-10-02T06:04:14.635Z,101858.41
2022-10-02T06:06:47.318Z,101859.41
2022-10-02T06:09:19.774Z,101877.97
2022-10-02T06:11:49.769Z,101871.59
2022-10-02T06:14:21.775Z,101863.53
2022-10-02T06:16:52.656Z,101880.50
2022-10-02T06:19:23.004Z,101878.84
2022-10-02T06:21:52.724Z,101831.13
2022-10-02T06:24:22.909Z,101872.97
2022-10-02T06:26:52.639Z,101841.34
2022-10-02T06:29:27.013Z,101888.34
2022-10-02T06:31:58.162Z,101893.78
2022-10-02T06:34:26.140Z,101897.41
2022-10-02T06:37:21.773Z,101890.66
2022-10-02T06:39:59.594Z,101907.25
2022-10-02T06:42:34.253Z,101895.88
2022-10-02T06:45:06.167Z,101901.53
2022-10-02T06:47:54.194Z,101908.47
2022-10-02T06:50:30.446Z,101912.69
2022-10-02T06:53:03.865Z,101911.69
2022-10-02T06:55:41.646Z,101916.00
2022-10-02T06:58:21.706Z,101912.31
2022-10-02T07:00:52.965Z,101919.56
2022-10-02T07:04:04.159Z,101924.56
2022-10-02T07:06:40.789Z,101934.22
2022-10-02T07:09:43.274Z,101930.38
2022-10-02T07:12:24.295Z,101933.75
2022-10-02T07:15:00.900Z,101939.00
2022-10-02T07:17:35.135Z,101951.13
2022-10-02T07:20:32.164Z,101942.03
2022-10-02T07:23:32.692Z,101948.00
2022-10-02T07:26:10.573Z,101954.03
2022-10-02T07:28:42.260Z,101945.78
2022-10-02T07:31:15.569Z,101935.22
2022-10-02T07:33:56.912Z,101938.50
2022-10-02T07:36:27.992Z,101944.69
2022-10-02T07:39:04.258Z,101929.75
2022-10-02T07:41:42.849Z,101938.38
2022-10-02T07:44:17.665Z,101943.44
2022-10-02T07:46:49.744Z,101926.66
2022-10-02T07:49:25.364Z,101934.03
2022-10-02T07:51:56.891Z,101945.34
2022-10-02T07:54:55.459Z,101945.88
2022-10-02T07:57:34.285Z,101932.47
2022-10-02T08:00:06.569Z,101947.22
2022-10-02T08:02:37.902Z,101941.47
2022-10-02T08:05:07.452Z,101939.81
2022-10-02T08:07:35.373Z,101949.28
2022-10-02T08:10:06.518Z,101959.03
2022-10-02T08:12:39.110Z,101964.31
2022-10-02T08:15:08.286Z,101968.66
2022-10-02T08:17:38.961Z,101964.53
2022-10-02T08:20:09.254Z,101983.13
2022-10-02T08:22:38.784Z,101977.03
2022-10-02T08:25:08.961Z,101985.34
2022-10-02T08:27:48.081Z,101997.19
2022-10-02T08:30:16.291Z,101991.16
2022-10-02T08:32:45.109Z,101997.34
2022-10-02T08:35:14.172Z,101994.19
2022-10-02T08:37:47.106Z,102001.22
2022-10-02T08:40:33.442Z,102008.25
2022-10-02T08:43:25.888Z,102010.38
2022-10-02T08:46:25.507Z,102022.31
2022-10-02T08:49:36.197Z,102043.28
2022-10-02T08:52:44.525Z,102052.66
2022-10-02T08:55:38.392Z,102051.63
2022-10-02T08:58:52.513Z,102061.25
2022-10-02T09:01:31.060Z,102051.00
2022-10-02T09:04:28.429Z,102035.75
2022-10-02T09:07:35.384Z,102068.03
2022-10-02T09:10:46.097Z,102063.22
2022-10-02T09:13:40.997Z,102070.53
2022-10-02T09:16:11.768Z,102056.88
2022-10-02T09:18:50.194Z,102077.13
2022-10-02T09:21:18.773Z,102069.41
2022-10-02T09:24:18.716Z,102043.94
2022-10-02T09:27:14.818Z,102083.22
2022-10-02T09:30:02.717Z,102081.09
2022-10-02T09:32:53.901Z,102102.56
2022-10-02T09:35:57.805Z,102114.09
2022-10-02T09:39:01.688Z,102099.91
2022-10-02T09:42:19.995Z,102105.84
2022-10-02T09:45:28.588Z,102114.81
2022-10-02T09:48:12.158Z,102126.50
2022-10-02T09:51:16.603Z,102119.34
2022-10-02T09:54:22.015Z,102133.63
2022-10-02T09:57:31.864Z,102131.91
2022-10-02T10:00:15.349Z,102136.91
2022-10-02T10:03:15.834Z,102134.00
2022-10-02T10:05:55.860Z,102139.81
2022-10-02T10:08:45.803Z,102143.41
2022-10-02T10:11:38.188Z,102144.09
2022-10-02T10:14:19.717Z,102137.25
2022-10-02T10:17:14.337Z,102140.88
2022-10-02T10:20:12.671Z,102145.09
2022-10-02T10:23:01.245Z,102152.25
2022-10-02T10:25:39.216Z,102161.88
2022-10-02T10:28:55.274Z,102164.47
2022-10-02T10:32:12.867Z,102173.22
2022-10-02T10:35:17.141Z,102166.22
2022-10-02T10:38:13.441Z,102168.81
2022-10-02T10:41:06.300Z,102170.53
2022-10-02T10:44:24.696Z,102192.28
2022-10-02T10:47:16.037Z,102199.69
2022-10-02T10:50:20.572Z,102196.25
2022-10-02T10:53:11.774Z,102213.59
2022-10-02T10:55:51.869Z,102205.06
2022-10-02T10:58:22.340Z,102169.88
2022-10-02T11:01:01.254Z,102200.06
2022-10-02T11:03:58.462Z,102208.81
2022-10-02T11:06:37.986Z,102216.75
2022-10-02T11:09:36.681Z,102199.44
2022-10-02T11:12:24.681Z,102213.16
2022-10-02T11:15:00.383Z,102202.41
2022-10-02T11:17:40.671Z,102220.59
2022-10-02T11:20:17.249Z,102227.41
2022-10-02T11:23:02.055Z,102237.31
2022-10-02T11:25:44.081Z,102244.78
2022-10-02T11:28:48.496Z,102244.00
2022-10-02T11:31:26.250Z,102242.53
2022-10-02T11:34:13.801Z,102256.16
2022-10-02T11:36:50.209Z,102263.50
2022-10-02T11:39:29.982Z,102258.53
2022-10-02T11:42:19.512Z,102252.69
2022-10-02T11:45:04.207Z,102264.31
2022-10-02T11:47:42.898Z,102264.56
2022-10-02T11:50:41.375Z,102252.38
2022-10-02T11:53:32.170Z,102270.13
2022-10-02T11:56:12.850Z,102279.31
2022-10-02T11:58:46.176Z,102284.78
2022-10-02T12:01:22.018Z,102265.25
2022-10-02T12:03:54.279Z,102289.25
2022-10-02T12:06:30.054Z,102285.59
2022-10-02T12:09:02.206Z,102291.41
2022-10-02T12:11:34.589Z,102289.63
2022-10-02T12:14:10.958Z,102293.63
2022-10-02T12:16:50.109Z,102294.16
2022-10-02T12:19:25.795Z,102298.47
2022-10-02T12:22:14.338Z,102300.72
2022-10-02T12:25:03.284Z,102300.53
2022-10-02T12:27:38.330Z,102296.03
2022-10-02T12:30:09.724Z,102301.09
2022-10-02T12:33:04.112Z,102314.56
2022-10-02T12:35:39.702Z,102304.81
2022-10-02T12:38:15.347Z,102318.25
2022-10-02T12:40:48.098Z,102316.59
2022-10-02T12:43:46.487Z,102317.63
2022-10-02T12:46:53.112Z,102323.28
2022-10-02T12:49:29.477Z,102318.81
2022-10-02T12:52:13.221Z,102332.94
2022-10-02T12:55:29.221Z,102328.59
2022-10-02T12:58:02.711Z,102322.34
2022-10-02T13:00:33.585Z,102310.69
2022-10-02T13:04:01.325Z,102322.56
2022-10-02T13:06:58.909Z,102295.84
2022-10-02T13:09:39.147Z,102336.81
2022-10-02T13:12:25.906Z,102333.50
2022-10-02T13:15:04.066Z,102332.50
2022-10-02T13:17:36.032Z,102331.91
2022-10-02T13:20:11.779Z,102336.28
2022-10-02T13:22:43.565Z,102345.59
2022-10-02T13:25:32.068Z,102327.03
2022-10-02T13:28:08.431Z,102340.63
2022-10-02T13:30:37.051Z,102359.13
2022-10-02T13:33:13.732Z,102347.38
2022-10-02T13:35:57.976Z,102337.50
2022-10-02T13:38:42.884Z,102341.47
2022-10-02T13:41:17.651Z,102341.97
2022-10-02T13:44:07.139Z,102346.03
2022-10-02T13:46:44.706Z,102352.75
2022-10-02T13:49:18.056Z,102356.06
2022-10-02T13:51:48.961Z,102358.97
2022-10-02T13:54:26.960Z,102349.63
2022-10-02T13:56:58.108Z,102348.22
2022-10-02T13:59:37.031Z,102349.59
2022-10-02T14:02:13.647Z,102355.03
2022-10-02T14:04:48.671Z,102351.25
2022-10-02T14:07:28.475Z,102338.69
2022-10-02T14:10:00.456Z,102349.22
2022-10-02T14:12:30.978Z,102343.13
2022-10-02T14:15:15.349Z,102357.47
2022-10-02T14:17:49.218Z,102353.31
2022-10-02T14:20:24.385Z,102362.44
2022-10-02T14:23:14.160Z,102356.94
2022-10-02T14:25:50.952Z,102359.09
2022-10-02T14:28:40.004Z,102362.97
2022-10-02T14:31:14.662Z,102357.00
2022-10-02T14:33:54.733Z,102359.75
2022-10-02T14:36:25.097Z,102359.22
2022-10-02T14:39:01.146Z,102361.44
2022-10-02T14:41:49.144Z,102362.63
2022-10-02T14:44:39.621Z,102360.81
2022-10-02T14:47:17.322Z,102354.72
2022-10-02T14:49:59.728Z,102364.09
2022-10-02T14:52:36.351Z,102365.88
2022-10-02T14:55:16.941Z,102354.84
2022-10-02T14:58:01.690Z,102365.28
2022-10-02T15:00:32.449Z,102367.72
2022-10-02T15:03:11.700Z,102362.72
2022-10-02T15:05:49.891Z,102371.78
2022-10-02T15:08:18.932Z,102371.91
2022-10-02T15:10:49.220Z,102370.06
2022-10-02T15:13:26.772Z,102386.88
2022-10-02T15:16:11.437Z,102384.41
2022-10-02T15:18:41.946Z,102388.19
2022-10-02T15:21:19.710Z,102389.38
2022-10-02T15:23:48.857Z,102390.34
2022-10-02T15:26:27.477Z,102399.03
2022-10-02T15:29:00.350Z,102400.41
2022-10-02T15:31:36.877Z,102407.25
2022-10-02T15:34:11.303Z,102408.75
2022-10-02T15:36:55.494Z,102399.59
2022-10-02T15:39:40.590Z,102406.38
2022-10-02T15:42:09.340Z,102402.50
2022-10-02T15:45:01.757Z,102402.28
2022-10-02T15:47:41.120Z,102392.59
2022-10-02T15:50:20.516Z,102404.31
2022-10-02T15:52:53.092Z,102412.19
2022-10-02T15:55:23.376Z,102405.59
2022-10-02T15:58:01.474Z,102422.09
2022-10-02T16:00:29.970Z,102411.88
2022-10-02T16:03:13.338Z,102417.78
2022-10-02T16:05:48.077Z,102424.00
2022-10-02T16:08:55.694Z,102422.94
2022-10-02T16:11:40.486Z,102426.16
2022-10-02T16:14:10.396Z,102420.94
2022-10-02T16:17:24.242Z,102423.88
2022-10-02T16:20:06.117Z,102425.53
2022-10-02T16:22:41.359Z,102424.28
2022-10-02T16:25:21.643Z,102433.69
2022-10-02T16:27:56.969Z,102433.22
2022-10-02T16:30:25.062Z,102434.84
2022-10-02T16:33:20.045Z,102442.28
2022-10-02T16:35:58.556Z,102438.31
2022-10-02T16:38:32.678Z,102438.47
2022-10-02T16:41:05.731Z,102434.88
2022-10-02T16:43:44.769Z,102457.31
2022-10-02T16:46:17.340Z,102446.50
2022-10-02T16:48:50.978Z,102459.25
2022-10-02T16:51:35.366Z,102455.50
2022-10-02T16:54:12.837Z,102462.59
2022-10-02T16:56:45.180Z,102473.81
2022-10-02T16:59:15.468Z,102472.44
2022-10-02T17:01:59.388Z,102476.44
2022-10-02T17:04:44.742Z,102473.28
2022-10-02T17:07:32.311Z,102490.59
2022-10-02T17:10:06.140Z,102497.44
2022-10-02T17:12:38.253Z,102498.63
2022-10-02T17:15:09.839Z,102493.59
2022-10-02T17:17:49.111Z,102487.03
2022-10-02T17:20:20.154Z,102510.34
2022-10-02T17:22:55.479Z,102506.47
2022-10-02T17:25:29.677Z,102519.19
2022-10-02T17:27:59.273Z,102513.25
2022-10-02T17:30:28.902Z,102525.22
2022-10-02T17:33:07.697Z,102523.63
2022-10-02T17:35:40.523Z,102523.78
2022-10-02T17:38:27.848Z,102496.88
2022-10-02T17:40:59.218Z,102511.53
2022-10-02T17:43:31.095Z,102529.22
2022-10-02T17:46:07.011Z,102532.94
2022-10-02T17:48:40.885Z,102526.22
2022-10-02T17:51:52.211Z,102539.13
2022-10-02T17:54:55.774Z,102536.00
2022-10-02T17:57:34.702Z,102542.56
2022-10-02T18:00:13.328Z,102542.97
2022-10-02T18:03:01.509Z,102543.50
2022-10-02T18:05:34.266Z,102546.53
2022-10-02T18:08:10.530Z,102553.13
2022-10-02T18:10:44.166Z,102556.16
2022-10-02T18:13:33.553Z,102547.56
2022-10-02T18:16:14.286Z,102552.28
2022-10-02T18:18:43.052Z,102555.41
2022-10-02T18:21:21.354Z,102556.75
2022-10-02T18:24:00.720Z,102544.81
2022-10-02T18:26:35.225Z,102549.91
2022-10-02T18:29:19.838Z,102552.78
2022-10-02T18:31:57.845Z,102541.84
2022-10-02T18:34:43.652Z,102576.19
2022-10-02T18:37:28.715Z,102587.16
2022-10-02T18:40:06.977Z,102582.31
2022-10-02T18:42:46.261Z,102590.13
2022-10-02T18:45:27.429Z,102601.94
2022-10-02T18:48:00.508Z,102606.66
2022-10-02T18:50:39.551Z,102582.06
2022-10-02T18:53:26.263Z,102595.66
2022-10-02T18:56:06.705Z,102611.03
2022-10-02T18:59:03.249Z,102603.31
2022-10-02T19:01:40.911Z,102600.88
2022-10-02T19:04:19.804Z,102608.31
2022-10-02T19:06:50.571Z,102582.47
2022-10-02T19:09:22.334Z,102623.00
2022-10-02T19:11:56.277Z,102621.31
2022-10-02T19:14:33.627Z,102605.38
2022-10-02T19:17:02.514Z,102615.31
2022-10-02T19:19:30.544Z,102616.38
2022-10-02T19:22:01.085Z,102614.13
2022-10-02T19:24:30.037Z,102621.47
2022-10-02T19:26:59.686Z,102615.44
2022-10-02T19:29:31.800Z,102611.09
2022-10-02T19:32:00.883Z,102600.56
2022-10-02T19:34:30.576Z,102611.25
2022-10-02T19:36:59.971Z,102615.94
2022-10-02T19:39:30.571Z,102605.41
2022-10-02T19:41:59.000Z,102609.25
2022-10-02T19:44:29.448Z,102598.81
2022-10-02T19:46:58.826Z,102612.38
2022-10-02T19:49:28.471Z,102624.28
2022-10-02T19:51:57.058Z,102623.66
2022-10-02T19:54:26.812Z,102623.97
2022-10-02T19:56:57.596Z,102638.28
2022-10-02T19:59:27.190Z,102646.47
2022-10-02T20:01:58.432Z,102646.66
2022-10-02T20:04:27.845Z,102648.47
2022-10-02T20:06:57.381Z,102652.22
2022-10-02T20:09:28.365Z,102658.63
2022-10-02T20:11:59.515Z,102650.03
2022-10-02T20:14:29.012Z,102655.50
2022-10-02T20:17:09.214Z,102660.91
2022-10-02T20:19:39.912Z,102668.34
2022-10-02T20:22:12.533Z,102672.16
2022-10-02T20:24:44.717Z,102672.34
2022-10-02T20:27:14.149Z,102673.44
2022-10-02T20:29:46.578Z,102664.72
2022-10-02T20:32:17.828Z,102666.72
2022-10-02T20:34:48.364Z,102646.75
2022-10-02T20:37:18.479Z,102668.97
2022-10-02T20:39:48.419Z,102673.44
2022-10-02T20:42:18.414Z,102665.50
2022-10-02T20:44:46.321Z,102612.84
2022-10-02T20:47:53.378Z,102654.97
2022-10-02T20:50:33.850Z,102655.81
2022-10-02T20:53:30.654Z,102659.56
2022-10-02T20:56:00.094Z,102661.38
2022-10-02T20:58:36.077Z,102661.44
2022-10-02T21:01:17.685Z,102659.72
2022-10-02T21:04:07.231Z,102639.69
2022-10-02T21:06:47.476Z,102658.97
2022-10-02T21:10:00.913Z,102659.03
2022-10-02T21:13:03.175Z,102651.06
2022-10-02T21:15:53.653Z,102616.09
2022-10-02T21:19:04.592Z,102652.75
2022-10-02T21:22:01.625Z,102657.09
2022-10-02T21:24:58.229Z,102653.53
2022-10-02T21:28:05.458Z,102651.00
2022-10-02T21:30:34.490Z,102647.66
2022-10-02T21:33:05.587Z,102647.50
2022-10-02T21:35:37.872Z,102640.34
2022-10-02T21:38:33.857Z,102644.78
2022-10-02T21:41:26.983Z,102650.19
2022-10-02T21:44:33.639Z,102651.50
2022-10-02T21:47:37.434Z,102653.28
2022-10-02T21:50:32.425Z,102648.16
2022-10-02T21:53:22.176Z,102650.97
2022-10-02T21:56:22.413Z,102656.25
2022-10-02T21:59:23.552Z,102655.28
2022-10-02T22:02:36.370Z,102658.16
2022-10-02T22:05:40.791Z,102670.75
2022-10-02T22:08:14.208Z,102675.34
2022-10-02T22:10:44.962Z,102671.97
2022-10-02T22:13:21.099Z,102658.84
2022-10-02T22:15:53.942Z,102674.75
2022-10-02T22:18:25.267Z,102681.00
2022-10-02T22:21:01.318Z,102681.91
2022-10-02T22:23:41.018Z,102684.47
2022-10-02T22:26:14.935Z,102680.84
2022-10-02T22:28:45.647Z,102683.53
2022-10-02T22:31:37.106Z,102689.78
2022-10-02T22:34:12.711Z,102673.81
2022-10-02T22:36:51.615Z,102684.28
2022-10-02T22:39:22.888Z,102679.72
2022-10-02T22:41:54.333Z,102684.09
2022-10-02T22:44:25.970Z,102687.75
2022-10-02T22:46:56.562Z,102684.34
2022-10-02T22:49:27.482Z,102683.44
2022-10-02T22:52:00.520Z,102686.31
2022-10-02T22:54:32.784Z,102679.34
2022-10-02T22:57:09.730Z,102679.63
2022-10-02T22:59:42.072Z,102680.41
2022-10-02T23:02:12.220Z,102682.31
2022-10-02T23:04:44.509Z,102682.50
2022-10-02T23:07:16.445Z,102675.50
2022-10-02T23:09:48.458Z,102685.38
2022-10-02T23:12:18.324Z,102682.81
2022-10-02T23:14:58.017Z,102683.88
2022-10-02T23:17:27.549Z,102685.81
2022-10-02T23:19:57.649Z,102680.59
2022-10-02T23:22:29.149Z,102664.00
2022-10-02T23:25:01.410Z,102668.34
2022-10-02T23:27:32.360Z,102652.63
2022-10-02T23:30:03.663Z,102655.31
2022-10-02T23:32:33.789Z,102664.25
2022-10-02T23:35:05.062Z,102676.81
2022-10-02T23:37:38.648Z,102655.69
2022-10-02T23:40:15.017Z,102669.75
2022-10-02T23:42:44.603Z,102672.47
2022-10-02T23:45:18.241Z,102662.75
2022-10-02T23:47:54.739Z,102671.66
2022-10-02T23:50:23.824Z,102673.53
2022-10-02T23:52:58.464Z,102675.38
2022-10-02T23:55:37.852Z,102671.88
2022-10-02T23:58:26.953Z,102664.81
